Time;durP1;ratioP1;P1;durP2;ratioP2;P2;SDS_P1;SDS_P2;PMS_P1;PMS_P2;Temp;Humidity;BMP_temperature;BMP_pressure;BME280_temperature;BME280_humidity;BME280_pressure;Samples;Min_cycle;Max_cycle;Signal;HPM_P1;HPM_P2
2020/12/25 00:02:22;;;;;;;3.97;2.70;;;4.40;90.70;;;;;;4972429;28;20034;-85
2020/12/25 00:04:48;;;;;;;4.78;3.70;;;4.40;90.90;;;;;;4989335;28;20034;-87
2020/12/25 00:07:13;;;;;;;6.35;4.70;;;4.40;90.30;;;;;;4989145;28;20102;-86
2020/12/25 00:09:39;;;;;;;9.77;5.90;;;4.40;90.40;;;;;;4990758;28;20069;-85
2020/12/25 00:12:08;;;;;;;8.18;6.63;;;4.30;90.70;;;;;;4971686;28;20034;-85
2020/12/25 00:14:33;;;;;;;9.48;7.72;;;4.40;90.60;;;;;;4984724;28;20053;-85
2020/12/25 00:16:59;;;;;;;10.27;8.80;;;4.30;90.70;;;;;;5006567;28;20371;-86
2020/12/25 00:19:25;;;;;;;13.15;8.63;;;4.40;90.80;;;;;;4991128;28;20046;-83
2020/12/25 00:21:54;;;;;;;10.98;8.40;;;4.40;90.40;;;;;;4989670;28;20064;-86
2020/12/25 00:24:19;;;;;;;9.85;8.18;;;4.40;90.40;;;;;;4989959;28;20041;-86
2020/12/25 00:26:45;;;;;;;8.65;7.70;;;4.40;90.60;;;;;;4989941;28;20023;-86
2020/12/25 00:29:10;;;;;;;13.70;8.55;;;4.40;90.60;;;;;;4990667;28;20022;-86
2020/12/25 00:31:39;;;;;;;7.72;6.70;;;4.40;90.20;;;;;;4991730;28;20081;-85
2020/12/25 00:34:10;;;;;;;7.88;6.55;;;4.40;90.30;;;;;;4986489;28;20026;-86
2020/12/25 00:36:38;;;;;;;6.68;5.32;;;4.40;90.10;;;;;;4986870;28;20046;-86
2020/12/25 00:39:07;;;;;;;5.80;4.30;;;4.40;89.80;;;;;;4988381;28;20046;-86
2020/12/25 00:41:34;;;;;;;4.78;3.60;;;4.40;89.30;;;;;;4978902;28;20105;-83
2020/12/25 00:43:59;;;;;;;4.18;3.10;;;4.40;88.00;;;;;;4972401;28;20026;-85
2020/12/25 00:46:25;;;;;;;3.47;2.42;;;4.40;88.80;;;;;;4987673;28;20031;-86
2020/12/25 00:48:51;;;;;;;7.75;2.78;;;4.40;88.30;;;;;;4989725;28;20046;-86
2020/12/25 00:51:18;;;;;;;3.53;2.35;;;4.40;89.00;;;;;;4988237;28;20026;-85
2020/12/25 00:53:45;;;;;;;4.22;2.53;;;4.40;89.40;;;;;;4990035;28;20026;-86
2020/12/25 00:56:11;;;;;;;2.85;1.75;;;4.40;89.50;;;;;;4987945;28;20037;-86
2020/12/25 00:58:38;;;;;;;3.53;2.15;;;4.40;88.90;;;;;;4990714;28;20034;-86
2020/12/25 01:01:05;;;;;;;2.95;1.77;;;4.40;89.70;;;;;;4989413;28;20027;-86
2020/12/25 01:03:35;;;;;;;3.15;1.92;;;4.40;88.60;;;;;;4970819;28;20054;-86
2020/12/25 01:06:01;;;;;;;3.67;2.08;;;4.40;89.60;;;;;;4984958;28;20101;-85
2020/12/25 01:08:26;;;;;;;4.18;2.65;;;4.40;89.70;;;;;;4990907;28;20117;-85
2020/12/25 01:10:52;;;;;;;4.05;2.50;;;4.40;90.20;;;;;;4976747;28;20034;-86
2020/12/25 01:13:18;;;;;;;4.65;2.20;;;4.40;90.20;;;;;;4971093;28;20069;-86
2020/12/25 01:15:44;;;;;;;2.33;1.73;;;4.40;89.50;;;;;;4972263;28;20038;-85
2020/12/25 01:18:10;;;;;;;3.55;2.30;;;4.40;89.70;;;;;;4988232;28;20394;-86
2020/12/25 01:20:36;;;;;;;3.53;2.20;;;4.30;90.00;;;;;;4992639;28;20034;-85
2020/12/25 01:23:03;;;;;;;2.88;2.20;;;4.30;89.80;;;;;;4994485;28;20077;-84
2020/12/25 01:25:29;;;;;;;4.20;2.47;;;4.30;90.10;;;;;;4993282;28;20034;-85
2020/12/25 01:27:55;;;;;;;4.63;2.85;;;4.40;89.90;;;;;;4991911;28;20034;-86
2020/12/25 01:30:20;;;;;;;5.10;3.80;;;4.30;90.50;;;;;;4991950;28;20569;-85
2020/12/25 01:32:46;;;;;;;4.90;3.58;;;4.40;90.50;;;;;;4992772;28;20026;-85
2020/12/25 01:35:12;;;;;;;7.50;5.05;;;4.40;90.50;;;;;;4992857;28;20050;-85
2020/12/25 01:37:37;;;;;;;6.28;5.13;;;4.30;90.60;;;;;;4994351;28;20118;-85
2020/12/25 01:40:05;;;;;;;7.22;6.30;;;4.30;90.70;;;;;;4993521;28;20038;-85
2020/12/25 01:42:34;;;;;;;6.50;5.80;;;4.30;90.80;;;;;;4974025;28;20564;-86
2020/12/25 01:44:59;;;;;;;7.25;5.75;;;4.30;90.70;;;;;;4991711;28;20486;-85
2020/12/25 01:47:25;;;;;;;10.90;6.82;;;4.30;90.80;;;;;;4993153;28;20076;-86
2020/12/25 01:49:51;;;;;;;7.32;6.45;;;4.30;90.80;;;;;;4994486;28;20066;-85
2020/12/25 01:52:18;;;;;;;10.27;7.80;;;4.30;91.00;;;;;;4983158;28;20022;-85
2020/12/25 01:54:45;;;;;;;9.68;8.27;;;4.30;91.20;;;;;;4989495;28;20033;-85
2020/12/25 01:57:13;;;;;;;12.68;9.30;;;4.30;91.50;;;;;;4992977;28;20027;-85
2020/12/25 01:59:40;;;;;;;11.02;9.15;;;4.30;91.50;;;;;;4991678;28;20073;-86
2020/12/25 02:02:08;;;;;;;11.57;9.80;;;4.30;91.70;;;;;;4992859;28;20031;-85
2020/12/25 02:04:34;;;;;;;11.57;9.70;;;4.30;91.90;;;;;;4993684;28;20666;-84
2020/12/25 02:07:00;;;;;;;12.93;10.18;;;4.30;91.90;;;;;;4984887;28;20082;-85
2020/12/25 02:09:26;;;;;;;13.85;9.48;;;4.20;91.90;;;;;;4985771;28;20026;-85
2020/12/25 02:11:53;;;;;;;11.05;9.20;;;4.20;92.10;;;;;;4993034;28;20484;-85
2020/12/25 02:14:19;;;;;;;11.02;8.38;;;4.20;92.20;;;;;;4992012;28;20030;-85
2020/12/25 02:16:45;;;;;;;11.55;8.68;;;4.20;92.20;;;;;;4991819;28;20034;-86
2020/12/25 02:19:11;;;;;;;9.23;8.15;;;4.10;92.10;;;;;;4992190;28;20037;-85
2020/12/25 02:21:37;;;;;;;8.98;7.20;;;4.20;92.40;;;;;;4985826;28;20473;-85
2020/12/25 02:24:03;;;;;;;10.07;8.38;;;4.20;92.40;;;;;;4991992;28;20061;-86
2020/12/25 02:26:29;;;;;;;7.78;6.88;;;4.20;92.50;;;;;;4992652;28;20117;-85
2020/12/25 02:28:55;;;;;;;10.82;8.90;;;4.20;92.60;;;;;;4992662;28;20023;-85
2020/12/25 02:31:21;;;;;;;9.38;7.68;;;4.20;92.70;;;;;;4990761;28;20026;-85
2020/12/25 02:33:46;;;;;;;7.43;6.22;;;4.20;93.00;;;;;;4990532;28;20018;-85
2020/12/25 02:36:12;;;;;;;7.45;5.90;;;4.20;92.80;;;;;;4991208;28;20402;-85
2020/12/25 02:38:38;;;;;;;6.85;5.32;;;4.30;92.80;;;;;;4992454;28;20038;-85
2020/12/25 02:41:03;;;;;;;8.98;6.32;;;4.30;92.90;;;;;;4991741;28;20031;-85
2020/12/25 02:43:29;;;;;;;8.13;6.75;;;4.30;93.10;;;;;;4991605;28;20529;-85
2020/12/25 02:45:55;;;;;;;10.82;7.90;;;4.30;92.90;;;;;;4991759;28;20059;-85
2020/12/25 02:48:20;;;;;;;7.75;6.65;;;4.30;92.60;;;;;;4992264;28;20038;-86
2020/12/25 02:50:46;;;;;;;11.23;8.93;;;4.30;92.60;;;;;;4991549;28;20022;-85
2020/12/25 02:53:12;;;;;;;10.80;8.32;;;4.30;92.50;;;;;;4992910;28;20536;-85
2020/12/25 02:55:37;;;;;;;11.68;9.45;;;4.30;92.80;;;;;;4974501;28;20097;-85
2020/12/25 02:58:03;;;;;;;12.15;10.13;;;4.30;92.80;;;;;;4989949;28;20018;-85
2020/12/25 03:00:28;;;;;;;14.93;11.13;;;4.30;92.90;;;;;;4993738;28;20034;-85
2020/12/25 03:02:54;;;;;;;14.38;11.40;;;4.30;92.90;;;;;;5002690;28;20030;-85
2020/12/25 03:05:20;;;;;;;12.57;10.32;;;4.30;92.80;;;;;;4998131;28;20042;-86
2020/12/25 03:07:45;;;;;;;13.35;11.38;;;4.30;92.60;;;;;;4991689;28;20037;-85
2020/12/25 03:10:11;;;;;;;12.45;10.35;;;4.30;92.50;;;;;;4992402;28;20089;-85
2020/12/25 03:12:36;;;;;;;12.25;10.25;;;4.30;92.50;;;;;;4990396;28;20023;-85
2020/12/25 03:15:03;;;;;;;12.43;10.65;;;4.30;92.20;;;;;;4991056;28;20057;-85
2020/12/25 03:17:28;;;;;;;12.35;9.80;;;4.30;92.20;;;;;;4991231;28;20019;-85
2020/12/25 03:19:54;;;;;;;12.75;10.50;;;4.30;92.30;;;;;;4991853;28;20041;-85
2020/12/25 03:22:20;;;;;;;10.38;8.60;;;4.30;92.10;;;;;;4990176;28;20517;-85
2020/12/25 03:24:45;;;;;;;15.30;10.30;;;4.30;92.10;;;;;;4992200;28;20030;-85
2020/12/25 03:27:11;;;;;;;11.10;9.68;;;4.30;92.20;;;;;;4989819;28;20640;-85
2020/12/25 03:29:37;;;;;;;12.65;9.60;;;4.30;92.10;;;;;;4990008;28;20030;-85
2020/12/25 03:32:02;;;;;;;10.65;8.48;;;4.20;92.10;;;;;;4993395;28;20042;-85
2020/12/25 03:34:28;;;;;;;9.05;6.80;;;4.20;92.00;;;;;;4990566;28;20108;-85
2020/12/25 03:36:55;;;;;;;8.82;5.20;;;4.20;91.60;;;;;;4989168;28;20030;-85
2020/12/25 03:39:20;;;;;;;7.07;5.65;;;4.20;91.40;;;;;;4972735;28;20042;-86
2020/12/25 03:41:46;;;;;;;8.95;6.15;;;4.10;91.60;;;;;;4973590;28;20030;-85
2020/12/25 03:44:12;;;;;;;8.20;6.15;;;4.20;92.00;;;;;;4974602;28;20040;-86
2020/12/25 03:46:38;;;;;;;10.95;6.30;;;4.20;91.30;;;;;;4991728;28;20105;-85
2020/12/25 03:49:05;;;;;;;9.45;6.35;;;4.20;91.60;;;;;;4989579;28;20034;-86
2020/12/25 03:51:31;;;;;;;8.13;6.90;;;4.30;91.60;;;;;;4989526;28;20027;-85
2020/12/25 03:53:57;;;;;;;8.85;7.30;;;4.30;91.40;;;;;;4992173;28;20042;-85
2020/12/25 03:56:23;;;;;;;7.43;6.63;;;4.30;91.80;;;;;;4992414;28;20026;-86
2020/12/25 03:58:48;;;;;;;8.27;6.40;;;4.30;91.70;;;;;;4991455;28;20121;-85
2020/12/25 04:01:14;;;;;;;6.70;5.20;;;4.30;91.70;;;;;;4991106;28;20111;-86
2020/12/25 04:03:41;;;;;;;6.57;5.28;;;4.40;91.50;;;;;;4990523;28;20429;-85
2020/12/25 04:06:07;;;;;;;6.78;4.68;;;4.30;91.50;;;;;;4989902;28;20490;-84
2020/12/25 04:08:33;;;;;;;6.60;4.85;;;4.30;91.60;;;;;;4990826;28;20019;-85
2020/12/25 04:10:58;;;;;;;7.28;4.68;;;4.40;91.70;;;;;;4992846;28;20041;-86
2020/12/25 04:13:24;;;;;;;7.45;4.43;;;4.40;91.50;;;;;;4971442;28;20042;-85
2020/12/25 04:15:50;;;;;;;5.63;4.13;;;4.40;91.60;;;;;;4991476;28;20030;-86
2020/12/25 04:18:16;;;;;;;4.78;4.20;;;4.40;91.60;;;;;;4971712;28;20026;-85
2020/12/25 04:20:41;;;;;;;7.00;5.65;;;4.40;91.50;;;;;;4989001;28;20033;-85
2020/12/25 04:23:07;;;;;;;6.13;4.68;;;4.40;91.50;;;;;;4992705;28;20034;-85
2020/12/25 04:25:32;;;;;;;8.25;4.50;;;4.40;91.40;;;;;;4990853;28;20027;-85
2020/12/25 04:27:58;;;;;;;5.13;3.50;;;4.40;91.40;;;;;;4990553;28;20393;-85
2020/12/25 04:30:24;;;;;;;6.03;3.47;;;4.50;91.30;;;;;;4989265;28;20169;-86
2020/12/25 04:32:50;;;;;;;4.60;3.30;;;4.50;91.30;;;;;;4991072;28;20026;-86
2020/12/25 04:35:16;;;;;;;5.50;3.67;;;4.50;91.20;;;;;;4973138;28;20401;-86
2020/12/25 04:37:41;;;;;;;5.93;3.47;;;4.50;91.50;;;;;;4990697;28;20038;-86
2020/12/25 04:40:07;;;;;;;6.03;3.72;;;4.50;91.50;;;;;;4986085;28;20073;-86
2020/12/25 04:42:41;;;;;;;5.35;2.72;;;4.40;91.60;;;;;;4986337;28;20022;-85
2020/12/25 04:45:10;;;;;;;4.13;3.05;;;4.50;91.40;;;;;;4989618;28;20523;-85
2020/12/25 04:47:37;;;;;;;6.28;3.20;;;4.40;91.60;;;;;;4980957;28;20022;-85
2020/12/25 04:50:04;;;;;;;4.13;3.08;;;4.50;91.70;;;;;;4990028;28;20022;-85
2020/12/25 04:52:29;;;;;;;6.68;3.55;;;4.50;91.60;;;;;;4990647;28;20022;-85
2020/12/25 04:54:55;;;;;;;3.42;2.70;;;4.60;91.60;;;;;;4994757;28;20030;-85
2020/12/25 04:57:21;;;;;;;8.57;4.35;;;4.60;91.70;;;;;;4988187;28;20482;-86
2020/12/25 04:59:47;;;;;;;3.92;2.75;;;4.60;91.60;;;;;;4984698;28;20041;-85
2020/12/25 05:02:14;;;;;;;5.45;2.92;;;4.50;91.70;;;;;;4987148;28;20030;-86
2020/12/25 05:04:40;;;;;;;4.40;3.42;;;4.60;91.60;;;;;;4989861;28;20030;-86
2020/12/25 05:07:06;;;;;;;5.05;3.80;;;4.50;91.70;;;;;;4987350;28;20117;-84
2020/12/25 05:09:32;;;;;;;4.72;3.50;;;4.60;91.80;;;;;;4989637;28;20034;-85
2020/12/25 05:11:58;;;;;;;4.05;3.28;;;4.60;91.80;;;;;;4990257;28;20027;-86
2020/12/25 05:14:34;;;;;;;4.80;3.33;;;4.60;92.10;;;;;;4990126;28;20030;-86
2020/12/25 05:17:00;;;;;;;4.63;3.67;;;4.60;91.90;;;;;;4991572;28;20030;-85
2020/12/25 05:19:27;;;;;;;4.78;4.10;;;4.60;91.80;;;;;;4988615;28;20042;-85
2020/12/25 05:21:58;;;;;;;8.15;6.22;;;4.60;92.00;;;;;;4988120;28;20458;-85
2020/12/25 05:24:24;;;;;;;7.13;5.47;;;4.60;92.10;;;;;;4979391;28;20364;-85
2020/12/25 05:26:55;;;;;;;7.40;6.55;;;4.60;92.20;;;;;;4988282;28;20026;-86
2020/12/25 05:29:23;;;;;;;6.65;5.93;;;4.60;92.00;;;;;;4989175;28;20030;-86
2020/12/25 05:31:50;;;;;;;6.60;5.20;;;4.60;92.00;;;;;;4991473;28;20026;-86
2020/12/25 05:34:21;;;;;;;6.28;4.65;;;4.60;92.20;;;;;;4988033;28;20030;-85
2020/12/25 05:36:54;;;;;;;7.82;5.43;;;4.60;92.20;;;;;;4989454;28;20046;-85
2020/12/25 05:39:27;;;;;;;7.45;5.20;;;4.60;92.30;;;;;;4989825;28;20469;-86
2020/12/25 05:42:01;;;;;;;5.57;4.97;;;4.60;92.40;;;;;;4988725;28;20022;-86
2020/12/25 05:44:35;;;;;;;7.57;6.28;;;4.60;92.70;;;;;;4989711;28;20166;-85
2020/12/25 05:47:02;;;;;;;7.18;5.35;;;4.60;92.70;;;;;;4998050;28;20035;-85
2020/12/25 05:49:29;;;;;;;7.45;5.50;;;4.50;92.70;;;;;;5005183;28;20034;-85
2020/12/25 05:51:56;;;;;;;5.88;4.95;;;4.50;92.90;;;;;;4989807;28;20130;-86
2020/12/25 05:54:24;;;;;;;5.65;4.78;;;4.50;92.90;;;;;;4987175;28;20022;-85
2020/12/25 05:56:55;;;;;;;4.95;4.40;;;4.50;92.80;;;;;;4972417;28;20061;-86
2020/12/25 05:59:28;;;;;;;;;;;4.50;92.90;;;;;;4989966;28;20030;-85
2020/12/25 06:01:58;;;;;;;6.72;5.10;;;4.50;93.20;;;;;;4973681;28;19953;-86
2020/12/25 06:04:29;;;;;;;5.88;5.28;;;4.50;93.00;;;;;;4988240;28;20036;-85
2020/12/25 06:06:55;;;;;;;;;;;4.50;93.10;;;;;;4970473;28;20438;-85
2020/12/25 06:09:31;;;;;;;7.03;5.68;;;4.50;93.00;;;;;;4993310;28;19949;-86
2020/12/25 06:11:57;;;;;;;9.73;7.70;;;4.50;93.10;;;;;;4987813;28;20022;-85
2020/12/25 06:14:23;;;;;;;9.45;8.00;;;4.50;93.00;;;;;;4990864;28;20563;-85
2020/12/25 06:17:14;;;;;;;10.05;8.52;;;4.50;93.00;;;;;;4994415;28;20118;-86
2020/12/25 06:19:45;;;;;;;11.90;9.18;;;4.50;92.90;;;;;;4993393;28;20038;-86
2020/12/25 06:22:39;;;;;;;12.55;9.32;;;4.50;93.00;;;;;;4991624;28;20129;-86
2020/12/25 06:25:11;;;;;;;11.50;8.82;;;4.50;92.90;;;;;;4983016;28;20034;-85
2020/12/25 06:27:46;;;;;;;13.63;10.10;;;4.50;93.00;;;;;;4991310;28;20030;-85
2020/12/25 06:30:12;;;;;;;13.82;9.95;;;4.50;93.00;;;;;;4991243;28;20514;-86
2020/12/25 06:32:49;;;;;;;14.48;10.13;;;4.50;93.10;;;;;;4991081;28;20034;-86
2020/12/25 06:35:15;;;;;;;15.65;9.68;;;4.40;92.90;;;;;;4992993;28;20050;-84
2020/12/25 06:37:41;;;;;;;14.30;10.77;;;4.40;93.00;;;;;;4987025;28;20029;-87
2020/12/25 06:40:07;;;;;;;13.82;9.90;;;4.40;93.00;;;;;;4990862;28;20038;-84
2020/12/25 06:42:37;;;;;;;16.42;10.85;;;4.50;93.10;;;;;;4992581;28;20509;-86
2020/12/25 06:45:05;;;;;;;14.13;10.35;;;4.40;92.90;;;;;;4990732;28;20490;-85
2020/12/25 06:47:35;;;;;;;17.85;11.65;;;4.40;92.90;;;;;;4991692;28;20026;-86
2020/12/25 06:50:12;;;;;;;17.27;12.63;;;4.40;93.10;;;;;;4993267;28;20482;-85
2020/12/25 06:52:56;;;;;;;15.15;10.57;;;4.40;93.20;;;;;;4988177;28;20023;-85
2020/12/25 06:55:23;;;;;;;17.92;12.52;;;4.40;93.10;;;;;;4991376;28;20037;-85
2020/12/25 06:57:53;;;;;;;14.05;11.38;;;4.40;93.20;;;;;;4990381;28;20026;-85
2020/12/25 07:00:20;;;;;;;14.27;11.30;;;4.40;93.20;;;;;;4989941;28;20042;-85
2020/12/25 07:02:47;;;;;;;16.35;11.23;;;4.40;93.30;;;;;;4992394;28;20018;-84
2020/12/25 07:05:13;;;;;;;17.33;12.07;;;4.40;93.20;;;;;;4991879;28;20034;-85
2020/12/25 07:07:39;;;;;;;15.82;11.27;;;4.40;93.30;;;;;;4991625;28;20161;-85
2020/12/25 07:10:09;;;;;;;18.65;12.70;;;4.40;93.10;;;;;;4991152;28;20117;-86
2020/12/25 07:12:36;;;;;;;14.95;11.93;;;4.30;93.00;;;;;;4991214;28;20026;-85
2020/12/25 07:15:03;;;;;;;15.88;11.45;;;4.30;92.90;;;;;;4990673;28;20415;-86
2020/12/25 07:17:29;;;;;;;14.52;11.38;;;4.30;93.00;;;;;;4991519;28;20019;-85
2020/12/25 07:19:55;;;;;;;13.20;10.73;;;4.30;92.90;;;;;;4993628;28;20053;-86
2020/12/25 07:22:21;;;;;;;15.23;10.50;;;4.30;92.90;;;;;;4990071;28;20033;-86
2020/12/25 07:24:47;;;;;;;12.55;10.27;;;4.30;92.70;;;;;;4990943;28;20037;-85
2020/12/25 07:27:14;;;;;;;14.88;9.90;;;4.30;92.50;;;;;;4990130;28;20031;-85
2020/12/25 07:29:41;;;;;;;9.02;7.57;;;4.40;92.50;;;;;;4971505;28;20038;-85
2020/12/25 07:32:11;;;;;;;8.75;7.03;;;4.40;92.30;;;;;;4992393;28;20030;-86
2020/12/25 07:34:37;;;;;;;7.53;6.43;;;4.30;92.40;;;;;;4990201;28;20033;-86
2020/12/25 07:37:03;;;;;;;10.10;5.78;;;4.40;92.60;;;;;;4989789;28;20384;-85
2020/12/25 07:39:30;;;;;;;6.30;5.30;;;4.40;92.20;;;;;;4990157;28;20458;-86
2020/12/25 07:41:56;;;;;;;6.93;4.55;;;4.40;92.20;;;;;;4989220;28;20426;-86
2020/12/25 07:44:24;;;;;;;7.30;4.55;;;4.40;92.00;;;;;;4974728;28;20046;-85
2020/12/25 07:46:51;;;;;;;5.82;4.03;;;4.50;92.10;;;;;;4991909;28;20398;-86
2020/12/25 07:49:18;;;;;;;5.65;3.45;;;4.50;92.00;;;;;;4989566;28;20096;-86
2020/12/25 07:51:46;;;;;;;6.95;4.00;;;4.50;91.50;;;;;;4988007;28;20022;-86
2020/12/25 07:54:14;;;;;;;6.28;3.60;;;4.60;91.30;;;;;;4989593;28;20437;-88
2020/12/25 07:56:40;;;;;;;7.68;3.83;;;4.60;91.50;;;;;;4989572;28;20045;-85
2020/12/25 07:59:05;;;;;;;7.03;3.95;;;4.60;90.90;;;;;;4989028;28;20125;-86
2020/12/25 08:01:33;;;;;;;7.05;3.05;;;4.60;90.80;;;;;;4989223;28;20034;-85
2020/12/25 08:04:04;;;;;;;4.63;2.72;;;4.60;91.00;;;;;;4984060;28;20038;-86
2020/12/25 08:06:35;;;;;;;4.88;2.53;;;4.60;90.90;;;;;;4991540;28;20426;-87
2020/12/25 08:09:10;;;;;;;;;;;4.60;90.20;;;;;;4989660;28;20026;-86
2020/12/25 08:11:38;;;;;;;5.40;3.75;;;4.50;90.30;;;;;;4981065;28;19957;-86
2020/12/25 08:14:07;;;;;;;7.57;4.03;;;4.50;90.40;;;;;;4971513;28;20437;-85
2020/12/25 08:16:38;;;;;;;7.03;3.90;;;4.50;89.70;;;;;;4982846;28;20085;-86
2020/12/25 08:19:05;;;;;;;7.65;3.67;;;4.50;90.00;;;;;;4987838;28;20037;-85
2020/12/25 08:21:32;;;;;;;5.53;3.35;;;4.50;90.30;;;;;;4972130;28;20093;-85
2020/12/25 08:23:58;;;;;;;5.45;3.50;;;4.60;90.30;;;;;;4989298;28;20018;-86
2020/12/25 08:26:38;;;;;;;7.20;4.70;;;4.60;89.80;;;;;;4989579;28;20299;-86
2020/12/25 08:29:04;;;;;;;7.15;4.45;;;4.60;90.00;;;;;;4987135;28;20026;-84
2020/12/25 08:31:36;;;;;;;5.70;3.95;;;4.60;90.00;;;;;;4989073;28;20034;-85
2020/12/25 08:34:03;;;;;;;6.72;4.43;;;4.60;89.80;;;;;;4997979;28;20053;-85
2020/12/25 08:36:29;;;;;;;8.25;4.70;;;4.60;90.40;;;;;;4985405;28;20076;-86
2020/12/25 08:38:55;;;;;;;7.50;4.53;;;4.60;90.10;;;;;;5000870;28;20045;-88
2020/12/25 08:41:26;;;;;;;7.13;4.68;;;4.70;89.80;;;;;;4972127;28;20102;-86
2020/12/25 08:43:52;;;;;;;7.38;5.25;;;4.70;89.40;;;;;;4987430;28;20035;-85
2020/12/25 08:46:22;;;;;;;7.22;5.50;;;4.60;88.90;;;;;;4970094;28;20027;-85
2020/12/25 08:48:52;;;;;;;6.60;5.07;;;4.60;89.20;;;;;;4969780;28;20034;-86
2020/12/25 08:51:19;;;;;;;6.93;5.07;;;4.50;87.80;;;;;;4960927;28;20093;-88
2020/12/25 08:53:54;;;;;;;7.97;5.43;;;4.50;88.70;;;;;;4970068;28;20031;-85
2020/12/25 08:56:22;;;;;;;7.35;4.85;;;4.50;88.60;;;;;;4957312;28;20034;-87
2020/12/25 08:58:58;;;;;;;5.45;4.63;;;4.50;88.70;;;;;;4971944;28;20030;-87
2020/12/25 09:01:25;;;;;;;9.32;5.35;;;4.50;88.80;;;;;;4969743;28;20035;-86
2020/12/25 09:03:51;;;;;;;8.82;4.28;;;4.50;88.70;;;;;;4969840;28;20030;-87
2020/12/25 09:06:17;;;;;;;6.63;5.03;;;4.50;88.00;;;;;;4968491;28;20386;-88
2020/12/25 09:08:43;;;;;;;5.70;4.93;;;4.50;87.90;;;;;;4967418;28;20035;-86
2020/12/25 09:11:13;;;;;;;6.35;4.80;;;4.50;88.10;;;;;;4971022;28;20447;-87
2020/12/25 09:13:39;;;;;;;6.82;5.22;;;4.60;87.20;;;;;;4969111;28;20031;-87
2020/12/25 09:16:06;;;;;;;8.30;5.75;;;4.60;88.20;;;;;;4965300;28;20035;-86
2020/12/25 09:18:32;;;;;;;7.47;5.57;;;4.60;87.10;;;;;;4970230;28;20389;-87
2020/12/25 09:20:58;;;;;;;5.72;4.30;;;4.60;86.40;;;;;;4966748;28;20402;-87
2020/12/25 09:23:23;;;;;;;5.90;4.78;;;4.70;85.50;;;;;;4970294;28;20042;-87
2020/12/25 09:25:49;;;;;;;8.73;5.50;;;4.70;87.20;;;;;;4970690;28;20069;-87
2020/12/25 09:28:15;;;;;;;8.05;4.85;;;4.70;85.70;;;;;;4968553;28;20533;-87
2020/12/25 09:30:40;;;;;;;8.13;4.93;;;4.70;85.90;;;;;;4968139;28;20042;-87
2020/12/25 09:33:06;;;;;;;6.15;4.68;;;4.70;86.30;;;;;;4971510;28;20125;-87
2020/12/25 09:35:32;;;;;;;6.47;4.18;;;4.70;86.00;;;;;;4976080;28;20722;-87
2020/12/25 09:37:57;;;;;;;7.30;4.75;;;4.70;85.40;;;;;;4990980;28;20073;-87
2020/12/25 09:40:23;;;;;;;8.15;5.55;;;4.70;85.20;;;;;;4989410;28;20026;-87
2020/12/25 09:42:49;;;;;;;7.30;4.57;;;4.60;85.20;;;;;;4992518;28;20038;-87
2020/12/25 09:45:14;;;;;;;7.60;5.28;;;4.70;85.30;;;;;;4990355;28;20072;-87
2020/12/25 09:47:40;;;;;;;9.50;5.47;;;4.60;85.30;;;;;;4991784;28;20467;-87
2020/12/25 09:50:07;;;;;;;6.20;4.82;;;4.50;85.40;;;;;;4991209;28;20033;-87
2020/12/25 09:52:34;;;;;;;8.30;4.97;;;4.60;85.40;;;;;;4991542;28;20032;-88
2020/12/25 09:55:00;;;;;;;5.70;4.20;;;4.60;85.80;;;;;;4989970;28;20026;-87
2020/12/25 09:57:25;;;;;;;6.55;4.47;;;4.50;84.20;;;;;;4991881;28;20037;-87
2020/12/25 09:59:54;;;;;;;6.55;4.43;;;4.50;85.30;;;;;;4989793;28;20034;-86
2020/12/25 10:02:19;;;;;;;8.05;4.40;;;4.50;85.70;;;;;;4990827;28;20062;-86
2020/12/25 10:04:45;;;;;;;6.38;5.20;;;4.40;85.40;;;;;;4988168;28;21868;-87
2020/12/25 10:07:11;;;;;;;7.32;6.00;;;4.40;85.70;;;;;;4990878;28;20065;-88
2020/12/25 10:09:37;;;;;;;9.38;6.25;;;4.40;86.10;;;;;;4990057;28;20049;-88
2020/12/25 10:12:03;;;;;;;9.38;7.10;;;4.40;86.20;;;;;;4989816;28;20045;-87
2020/12/25 10:14:28;;;;;;;9.70;5.28;;;4.40;86.50;;;;;;4992102;28;20072;-87
2020/12/25 10:16:54;;;;;;;6.93;3.80;;;4.40;85.20;;;;;;4994026;28;20022;-86
2020/12/25 10:19:20;;;;;;;5.28;3.70;;;4.40;83.30;;;;;;4990661;28;20526;-88
2020/12/25 10:21:45;;;;;;;6.07;3.60;;;4.40;82.80;;;;;;4990405;28;20471;-86
2020/12/25 10:24:11;;;;;;;7.60;5.13;;;4.30;83.50;;;;;;4991804;28;20188;-86
2020/12/25 10:26:37;;;;;;;7.80;4.43;;;4.30;84.10;;;;;;4990998;28;20019;-86
2020/12/25 10:29:02;;;;;;;15.63;6.72;;;4.30;85.10;;;;;;4994700;28;20026;-87
2020/12/25 10:31:28;;;;;;;15.25;7.55;;;4.30;85.00;;;;;;4980728;28;20029;-86
2020/12/25 10:33:54;;;;;;;15.40;10.23;;;4.30;84.10;;;;;;4993579;28;20109;-87
2020/12/25 10:36:28;;;;;;;12.82;9.25;;;4.20;83.60;;;;;;4993666;28;20074;-87
2020/12/25 10:38:54;;;;;;;18.73;11.45;;;4.20;83.80;;;;;;5009506;28;20030;-86
2020/12/25 10:41:20;;;;;;;14.77;8.77;;;4.20;84.70;;;;;;4988724;28;20116;-86
2020/12/25 10:43:46;;;;;;;18.00;11.38;;;4.10;84.60;;;;;;4991069;28;20042;-87
2020/12/25 10:46:18;;;;;;;12.75;8.82;;;4.10;85.20;;;;;;4989742;28;20034;-85
2020/12/25 10:48:44;;;;;;;13.20;8.68;;;4.10;86.10;;;;;;4973905;28;20027;-85
2020/12/25 10:51:10;;;;;;;10.40;7.70;;;4.10;85.20;;;;;;4987815;28;20042;-85
2020/12/25 10:53:35;;;;;;;9.05;7.47;;;4.10;85.40;;;;;;4989886;28;20022;-85
2020/12/25 10:56:01;;;;;;;10.57;7.47;;;4.10;85.10;;;;;;4984277;28;20030;-88
2020/12/25 10:58:27;;;;;;;7.63;5.43;;;4.10;85.50;;;;;;4989845;28;20058;-87
2020/12/25 11:00:52;;;;;;;7.40;5.20;;;4.10;85.10;;;;;;4987091;28;20517;-88
2020/12/25 11:03:18;;;;;;;7.18;4.97;;;4.10;84.70;;;;;;4983313;28;20030;-87
2020/12/25 11:05:43;;;;;;;6.60;5.63;;;4.20;85.40;;;;;;4972106;28;20155;-87
2020/12/25 11:08:09;;;;;;;5.70;4.32;;;4.10;85.30;;;;;;4992903;28;20165;-88
2020/12/25 11:10:35;;;;;;;6.22;4.85;;;4.10;85.40;;;;;;4991181;28;20034;-87
2020/12/25 11:13:03;;;;;;;10.10;5.90;;;4.10;85.30;;;;;;4972041;28;20022;-87
2020/12/25 11:15:29;;;;;;;10.40;6.53;;;4.10;85.40;;;;;;4991920;28;20025;-89
2020/12/25 11:17:54;;;;;;;9.57;6.07;;;4.10;85.50;;;;;;4976186;28;20026;-89
2020/12/25 11:20:23;;;;;;;9.93;6.20;;;4.20;85.30;;;;;;4999878;28;20046;-87
2020/12/25 11:22:48;;;;;;;10.77;6.63;;;4.20;84.90;;;;;;5004855;28;20057;-88
2020/12/25 11:25:17;;;;;;;10.02;7.22;;;4.20;84.30;;;;;;4991842;28;20038;-88
2020/12/25 11:27:43;;;;;;;9.50;6.85;;;4.20;83.50;;;;;;4988313;28;20029;-87
2020/12/25 11:30:11;;;;;;;11.73;7.78;;;4.20;84.80;;;;;;4988686;28;20042;-89
2020/12/25 11:32:37;;;;;;;11.10;6.72;;;4.20;84.10;;;;;;4989273;28;20025;-88
2020/12/25 11:35:04;;;;;;;11.10;7.72;;;4.20;84.70;;;;;;4969594;28;20042;-89
2020/12/25 11:37:30;;;;;;;11.60;6.75;;;4.20;84.80;;;;;;4970454;28;20077;-88
2020/12/25 11:39:55;;;;;;;10.93;6.43;;;4.20;85.10;;;;;;4969820;28;20403;-86
2020/12/25 11:42:21;;;;;;;9.95;7.03;;;4.20;84.30;;;;;;4969982;28;20027;-89
2020/12/25 11:44:47;;;;;;;9.70;6.57;;;4.20;84.80;;;;;;4973706;28;20183;-87
2020/12/25 11:47:12;;;;;;;11.75;7.30;;;4.20;85.10;;;;;;4973356;28;20031;-88
2020/12/25 11:49:38;;;;;;;12.13;8.85;;;4.20;85.30;;;;;;4972898;28;20027;-88
2020/12/25 11:52:04;;;;;;;12.70;8.20;;;4.20;85.00;;;;;;4970864;28;20054;-87
2020/12/25 11:54:29;;;;;;;12.98;9.15;;;4.20;85.10;;;;;;5001347;28;20034;-87
2020/12/25 11:56:55;;;;;;;13.85;10.18;;;4.30;85.40;;;;;;4970348;28;20038;-88
2020/12/25 11:59:21;;;;;;;14.60;8.95;;;4.30;85.40;;;;;;4971706;28;20486;-87
2020/12/25 12:01:47;;;;;;;12.45;9.05;;;4.30;85.90;;;;;;4973700;28;20031;-88
2020/12/25 12:04:13;;;;;;;12.70;9.23;;;4.40;84.50;;;;;;4970236;28;20030;-88
2020/12/25 12:06:38;;;;;;;12.00;9.25;;;4.30;84.00;;;;;;4972909;28;20101;-87
2020/12/25 12:09:04;;;;;;;13.88;9.93;;;4.30;84.20;;;;;;4967906;28;20023;-88
2020/12/25 12:11:29;;;;;;;16.98;10.32;;;4.40;84.20;;;;;;4968779;28;20057;-89
2020/12/25 12:13:55;;;;;;;14.55;10.98;;;4.30;83.60;;;;;;4972876;28;20027;-87
2020/12/25 12:16:21;;;;;;;14.55;10.90;;;4.30;83.60;;;;;;4969272;28;20031;-88
2020/12/25 12:18:51;;;;;;;16.27;11.23;;;4.30;83.70;;;;;;4967510;28;20376;-88
2020/12/25 12:21:18;;;;;;;17.13;11.73;;;4.40;84.70;;;;;;4969822;28;20509;-86
2020/12/25 12:23:44;;;;;;;18.55;11.95;;;4.40;85.20;;;;;;4970521;28;20027;-87
2020/12/25 12:26:10;;;;;;;13.80;10.90;;;4.40;84.70;;;;;;4971356;28;20027;-88
2020/12/25 12:28:36;;;;;;;12.40;8.55;;;4.40;85.40;;;;;;4970719;28;20042;-87
2020/12/25 12:31:03;;;;;;;11.95;8.18;;;4.40;83.10;;;;;;4968460;28;20498;-87
2020/12/25 12:33:28;;;;;;;12.23;7.65;;;4.40;83.90;;;;;;4968599;28;20027;-87
2020/12/25 12:35:54;;;;;;;12.30;8.27;;;4.50;83.00;;;;;;4982166;28;20108;-87
2020/12/25 12:38:20;;;;;;;12.63;7.53;;;4.50;83.60;;;;;;4991421;28;20145;-86
2020/12/25 12:40:45;;;;;;;10.43;7.70;;;4.40;83.30;;;;;;4990917;28;20038;-86
2020/12/25 12:43:11;;;;;;;12.05;8.13;;;4.50;83.80;;;;;;4989974;28;20034;-87
2020/12/25 12:45:38;;;;;;;13.38;8.70;;;4.50;84.40;;;;;;4987866;28;20514;-86
2020/12/25 12:48:04;;;;;;;11.30;8.48;;;4.50;83.70;;;;;;4972068;28;20030;-88
2020/12/25 12:50:29;;;;;;;11.95;8.32;;;4.50;83.30;;;;;;4991091;28;20034;-89
2020/12/25 12:52:55;;;;;;;12.57;7.53;;;4.50;84.00;;;;;;4992566;28;20037;-89